sensor_id;sensor_type;location;lat;lon;timestamp;P1;durP1;ratioP1;P2;durP2;ratioP2
16579;SDS011;8402;51.466;6.806;2023-02-15T00:01:32;22.37;;;9.67;;
16579;SDS011;8402;51.466;6.806;2023-02-15T00:04:02;26.77;;;10.90;;
16579;SDS011;8402;51.466;6.806;2023-02-15T00:06:33;25.63;;;10.17;;
16579;SDS011;8402;51.466;6.806;2023-02-15T00:09:06;22.43;;;9.77;;
16579;SDS011;8402;51.466;6.806;2023-02-15T00:11:37;24.00;;;11.27;;
16579;SDS011;8402;51.466;6.806;2023-02-15T00:14:17;23.93;;;10.50;;
16579;SDS011;8402;51.466;6.806;2023-02-15T00:16:49;20.67;;;9.97;;
16579;SDS011;8402;51.466;6.806;2023-02-15T00:19:21;21.43;;;9.67;;
16579;SDS011;8402;51.466;6.806;2023-02-15T00:21:51;22.00;;;9.50;;
16579;SDS011;8402;51.466;6.806;2023-02-15T00:24:24;21.70;;;10.17;;
16579;SDS011;8402;51.466;6.806;2023-02-15T00:26:54;24.53;;;10.13;;
16579;SDS011;8402;51.466;6.806;2023-02-15T00:29:24;20.23;;;9.67;;
16579;SDS011;8402;51.466;6.806;2023-02-15T00:31:54;32.17;;;11.07;;
16579;SDS011;8402;51.466;6.806;2023-02-15T00:34:25;22.37;;;10.17;;
16579;SDS011;8402;51.466;6.806;2023-02-15T00:36:56;24.20;;;9.93;;
16579;SDS011;8402;51.466;6.806;2023-02-15T00:39:29;25.10;;;10.17;;
16579;SDS011;8402;51.466;6.806;2023-02-15T00:41:58;22.33;;;10.33;;
16579;SDS011;8402;51.466;6.806;2023-02-15T00:44:28;26.10;;;10.07;;
16579;SDS011;8402;51.466;6.806;2023-02-15T00:46:58;24.73;;;9.67;;
16579;SDS011;8402;51.466;6.806;2023-02-15T00:49:28;23.23;;;10.40;;
16579;SDS011;8402;51.466;6.806;2023-02-15T00:51:58;24.93;;;10.73;;
16579;SDS011;8402;51.466;6.806;2023-02-15T00:54:30;20.63;;;9.53;;
16579;SDS011;8402;51.466;6.806;2023-02-15T00:57:00;23.27;;;10.47;;
16579;SDS011;8402;51.466;6.806;2023-02-15T00:59:30;26.67;;;11.57;;
16579;SDS011;8402;51.466;6.806;2023-02-15T01:02:00;26.67;;;10.10;;
16579;SDS011;8402;51.466;6.806;2023-02-15T01:04:30;20.33;;;9.80;;
16579;SDS011;8402;51.466;6.806;2023-02-15T01:07:00;26.27;;;10.90;;
16579;SDS011;8402;51.466;6.806;2023-02-15T01:09:33;21.53;;;10.27;;
16579;SDS011;8402;51.466;6.806;2023-02-15T01:12:03;24.17;;;11.10;;
16579;SDS011;8402;51.466;6.806;2023-02-15T01:14:35;26.57;;;11.33;;
16579;SDS011;8402;51.466;6.806;2023-02-15T01:17:05;22.93;;;9.20;;
16579;SDS011;8402;51.466;6.806;2023-02-15T01:19:34;22.20;;;9.70;;
16579;SDS011;8402;51.466;6.806;2023-02-15T01:22:04;19.57;;;10.20;;
16579;SDS011;8402;51.466;6.806;2023-02-15T01:24:37;24.57;;;10.53;;
16579;SDS011;8402;51.466;6.806;2023-02-15T01:27:07;21.30;;;9.20;;
16579;SDS011;8402;51.466;6.806;2023-02-15T01:29:37;22.43;;;9.70;;
16579;SDS011;8402;51.466;6.806;2023-02-15T01:32:07;23.57;;;10.43;;
16579;SDS011;8402;51.466;6.806;2023-02-15T01:34:37;20.17;;;8.67;;
16579;SDS011;8402;51.466;6.806;2023-02-15T01:37:07;22.40;;;10.60;;
16579;SDS011;8402;51.466;6.806;2023-02-15T01:39:39;25.33;;;9.87;;
16579;SDS011;8402;51.466;6.806;2023-02-15T01:42:10;21.77;;;9.80;;
16579;SDS011;8402;51.466;6.806;2023-02-15T01:44:45;27.77;;;11.13;;
16579;SDS011;8402;51.466;6.806;2023-02-15T01:47:17;24.80;;;11.73;;
16579;SDS011;8402;51.466;6.806;2023-02-15T01:49:56;26.93;;;11.13;;
16579;SDS011;8402;51.466;6.806;2023-02-15T01:52:31;26.67;;;11.07;;
16579;SDS011;8402;51.466;6.806;2023-02-15T01:55:07;28.87;;;11.60;;
16579;SDS011;8402;51.466;6.806;2023-02-15T01:57:39;23.40;;;9.70;;
16579;SDS011;8402;51.466;6.806;2023-02-15T02:00:09;29.57;;;10.83;;
16579;SDS011;8402;51.466;6.806;2023-02-15T02:02:40;23.87;;;10.30;;
16579;SDS011;8402;51.466;6.806;2023-02-15T02:05:12;23.13;;;10.50;;
16579;SDS011;8402;51.466;6.806;2023-02-15T02:07:43;22.33;;;10.30;;
16579;SDS011;8402;51.466;6.806;2023-02-15T02:12:52;20.50;;;9.10;;
16579;SDS011;8402;51.466;6.806;2023-02-15T02:15:25;26.27;;;10.37;;
16579;SDS011;8402;51.466;6.806;2023-02-15T02:18:08;28.50;;;11.43;;
16579;SDS011;8402;51.466;6.806;2023-02-15T02:20:52;22.47;;;10.17;;
16579;SDS011;8402;51.466;6.806;2023-02-15T02:23:42;23.30;;;9.87;;
16579;SDS011;8402;51.466;6.806;2023-02-15T02:35:48;24.93;;;10.50;;
16579;SDS011;8402;51.466;6.806;2023-02-15T02:38:27;27.50;;;11.33;;
16579;SDS011;8402;51.466;6.806;2023-02-15T02:41:06;23.37;;;10.70;;
16579;SDS011;8402;51.466;6.806;2023-02-15T02:43:44;24.07;;;10.27;;
16579;SDS011;8402;51.466;6.806;2023-02-15T02:46:22;26.93;;;10.10;;
16579;SDS011;8402;51.466;6.806;2023-02-15T02:49:00;27.97;;;10.23;;
16579;SDS011;8402;51.466;6.806;2023-02-15T02:51:30;26.87;;;11.63;;
16579;SDS011;8402;51.466;6.806;2023-02-15T02:54:00;29.50;;;11.97;;
16579;SDS011;8402;51.466;6.806;2023-02-15T02:56:36;24.10;;;10.33;;
16579;SDS011;8402;51.466;6.806;2023-02-15T02:59:11;25.70;;;10.80;;
16579;SDS011;8402;51.466;6.806;2023-02-15T03:01:46;32.57;;;11.13;;
16579;SDS011;8402;51.466;6.806;2023-02-15T03:04:22;25.00;;;10.70;;
16579;SDS011;8402;51.466;6.806;2023-02-15T03:06:57;26.73;;;11.67;;
16579;SDS011;8402;51.466;6.806;2023-02-15T03:09:30;24.50;;;10.60;;
16579;SDS011;8402;51.466;6.806;2023-02-15T03:12:08;25.57;;;10.73;;
16579;SDS011;8402;51.466;6.806;2023-02-15T03:14:40;24.87;;;11.03;;
16579;SDS011;8402;51.466;6.806;2023-02-15T03:17:13;31.10;;;10.60;;
16579;SDS011;8402;51.466;6.806;2023-02-15T03:19:49;27.73;;;10.73;;
16579;SDS011;8402;51.466;6.806;2023-02-15T03:22:23;26.63;;;10.37;;
16579;SDS011;8402;51.466;6.806;2023-02-15T03:24:59;28.47;;;10.70;;
16579;SDS011;8402;51.466;6.806;2023-02-15T03:27:32;23.27;;;10.07;;
16579;SDS011;8402;51.466;6.806;2023-02-15T03:30:06;24.83;;;10.53;;
16579;SDS011;8402;51.466;6.806;2023-02-15T03:32:38;26.80;;;11.20;;
16579;SDS011;8402;51.466;6.806;2023-02-15T03:35:12;24.80;;;10.67;;
16579;SDS011;8402;51.466;6.806;2023-02-15T03:37:43;23.27;;;10.57;;
16579;SDS011;8402;51.466;6.806;2023-02-15T03:40:21;23.53;;;10.93;;
16579;SDS011;8402;51.466;6.806;2023-02-15T03:43:09;25.27;;;11.27;;
16579;SDS011;8402;51.466;6.806;2023-02-15T03:45:44;28.97;;;11.70;;
16579;SDS011;8402;51.466;6.806;2023-02-15T03:48:24;25.83;;;10.37;;
16579;SDS011;8402;51.466;6.806;2023-02-15T03:51:01;25.00;;;11.07;;
16579;SDS011;8402;51.466;6.806;2023-02-15T03:53:47;24.40;;;10.30;;
16579;SDS011;8402;51.466;6.806;2023-02-15T03:56:19;26.67;;;10.57;;
16579;SDS011;8402;51.466;6.806;2023-02-15T03:58:49;25.07;;;10.40;;
16579;SDS011;8402;51.466;6.806;2023-02-15T04:01:33;27.93;;;11.07;;
16579;SDS011;8402;51.466;6.806;2023-02-15T04:04:19;26.73;;;11.13;;
16579;SDS011;8402;51.466;6.806;2023-02-15T04:06:54;28.63;;;10.93;;
16579;SDS011;8402;51.466;6.806;2023-02-15T04:09:24;23.57;;;10.97;;
16579;SDS011;8402;51.466;6.806;2023-02-15T04:12:06;30.37;;;12.53;;
16579;SDS011;8402;51.466;6.806;2023-02-15T04:14:36;26.67;;;11.20;;
16579;SDS011;8402;51.466;6.806;2023-02-15T04:17:18;25.53;;;10.43;;
16579;SDS011;8402;51.466;6.806;2023-02-15T04:19:48;28.13;;;11.33;;
16579;SDS011;8402;51.466;6.806;2023-02-15T04:22:33;26.03;;;11.17;;
16579;SDS011;8402;51.466;6.806;2023-02-15T04:25:15;24.83;;;10.90;;
16579;SDS011;8402;51.466;6.806;2023-02-15T04:27:46;27.60;;;12.20;;
16579;SDS011;8402;51.466;6.806;2023-02-15T04:30:18;29.20;;;11.80;;
16579;SDS011;8402;51.466;6.806;2023-02-15T04:32:50;28.60;;;11.93;;
16579;SDS011;8402;51.466;6.806;2023-02-15T04:35:20;30.10;;;12.20;;
16579;SDS011;8402;51.466;6.806;2023-02-15T04:37:52;30.80;;;12.13;;
16579;SDS011;8402;51.466;6.806;2023-02-15T04:40:22;29.23;;;12.17;;
16579;SDS011;8402;51.466;6.806;2023-02-15T04:42:53;27.47;;;11.57;;
16579;SDS011;8402;51.466;6.806;2023-02-15T04:45:22;36.73;;;12.33;;
16579;SDS011;8402;51.466;6.806;2023-02-15T04:47:53;28.13;;;11.57;;
16579;SDS011;8402;51.466;6.806;2023-02-15T04:50:23;25.93;;;10.97;;
16579;SDS011;8402;51.466;6.806;2023-02-15T04:52:56;26.17;;;10.93;;
16579;SDS011;8402;51.466;6.806;2023-02-15T04:55:25;30.33;;;12.57;;
16579;SDS011;8402;51.466;6.806;2023-02-15T04:57:55;28.37;;;11.73;;
16579;SDS011;8402;51.466;6.806;2023-02-15T05:00:25;26.00;;;11.87;;
16579;SDS011;8402;51.466;6.806;2023-02-15T05:02:55;26.27;;;11.53;;
16579;SDS011;8402;51.466;6.806;2023-02-15T05:05:25;30.37;;;11.60;;
16579;SDS011;8402;51.466;6.806;2023-02-15T05:07:58;36.10;;;13.07;;
16579;SDS011;8402;51.466;6.806;2023-02-15T05:10:28;26.63;;;11.53;;
16579;SDS011;8402;51.466;6.806;2023-02-15T05:12:57;28.50;;;11.10;;
16579;SDS011;8402;51.466;6.806;2023-02-15T05:15:27;28.40;;;11.83;;
16579;SDS011;8402;51.466;6.806;2023-02-15T05:17:57;29.87;;;11.80;;
16579;SDS011;8402;51.466;6.806;2023-02-15T05:20:27;30.33;;;11.23;;
16579;SDS011;8402;51.466;6.806;2023-02-15T05:23:00;25.50;;;11.77;;
16579;SDS011;8402;51.466;6.806;2023-02-15T05:25:30;30.63;;;12.50;;
16579;SDS011;8402;51.466;6.806;2023-02-15T05:28:12;33.03;;;12.03;;
16579;SDS011;8402;51.466;6.806;2023-02-15T05:30:51;27.83;;;11.20;;
16579;SDS011;8402;51.466;6.806;2023-02-15T05:33:34;29.40;;;12.37;;
16579;SDS011;8402;51.466;6.806;2023-02-15T05:36:04;28.03;;;11.87;;
16579;SDS011;8402;51.466;6.806;2023-02-15T05:38:38;29.20;;;10.90;;
16579;SDS011;8402;51.466;6.806;2023-02-15T05:41:08;31.17;;;12.27;;
16579;SDS011;8402;51.466;6.806;2023-02-15T05:43:40;30.33;;;11.20;;
16579;SDS011;8402;51.466;6.806;2023-02-15T05:46:10;29.87;;;11.50;;
16579;SDS011;8402;51.466;6.806;2023-02-15T05:48:41;30.97;;;12.30;;
16579;SDS011;8402;51.466;6.806;2023-02-15T05:51:11;29.57;;;11.37;;
16579;SDS011;8402;51.466;6.806;2023-02-15T05:53:45;27.37;;;11.37;;
16579;SDS011;8402;51.466;6.806;2023-02-15T05:56:15;25.10;;;11.03;;
16579;SDS011;8402;51.466;6.806;2023-02-15T05:58:44;27.40;;;11.77;;
16579;SDS011;8402;51.466;6.806;2023-02-15T06:01:15;26.47;;;11.37;;
16579;SDS011;8402;51.466;6.806;2023-02-15T06:03:48;26.80;;;11.33;;
16579;SDS011;8402;51.466;6.806;2023-02-15T06:06:18;34.30;;;12.40;;
16579;SDS011;8402;51.466;6.806;2023-02-15T06:08:51;26.73;;;11.27;;
16579;SDS011;8402;51.466;6.806;2023-02-15T06:11:20;27.23;;;11.97;;
16579;SDS011;8402;51.466;6.806;2023-02-15T06:13:50;33.07;;;11.70;;
16579;SDS011;8402;51.466;6.806;2023-02-15T06:16:20;28.17;;;11.60;;
16579;SDS011;8402;51.466;6.806;2023-02-15T06:18:50;25.73;;;11.37;;
16579;SDS011;8402;51.466;6.806;2023-02-15T06:21:20;31.73;;;11.97;;
16579;SDS011;8402;51.466;6.806;2023-02-15T06:23:53;28.80;;;11.47;;
16579;SDS011;8402;51.466;6.806;2023-02-15T06:26:23;33.67;;;12.70;;
16579;SDS011;8402;51.466;6.806;2023-02-15T06:28:52;29.30;;;11.60;;
16579;SDS011;8402;51.466;6.806;2023-02-15T06:31:22;27.13;;;11.30;;
16579;SDS011;8402;51.466;6.806;2023-02-15T06:33:52;26.83;;;11.23;;
16579;SDS011;8402;51.466;6.806;2023-02-15T06:36:27;30.57;;;11.40;;
16579;SDS011;8402;51.466;6.806;2023-02-15T06:39:00;24.33;;;11.33;;
16579;SDS011;8402;51.466;6.806;2023-02-15T06:41:31;23.83;;;10.70;;
16579;SDS011;8402;51.466;6.806;2023-02-15T06:44:01;27.43;;;11.83;;
16579;SDS011;8402;51.466;6.806;2023-02-15T06:46:31;33.33;;;12.93;;
16579;SDS011;8402;51.466;6.806;2023-02-15T06:49:01;30.27;;;13.00;;
16579;SDS011;8402;51.466;6.806;2023-02-15T06:51:31;39.47;;;13.30;;
16579;SDS011;8402;51.466;6.806;2023-02-15T06:54:03;33.30;;;13.77;;
16579;SDS011;8402;51.466;6.806;2023-02-15T06:56:33;35.73;;;13.60;;
16579;SDS011;8402;51.466;6.806;2023-02-15T06:59:03;33.43;;;12.37;;
16579;SDS011;8402;51.466;6.806;2023-02-15T07:01:33;35.87;;;12.37;;
16579;SDS011;8402;51.466;6.806;2023-02-15T07:04:06;31.83;;;12.47;;
16579;SDS011;8402;51.466;6.806;2023-02-15T07:06:36;36.00;;;13.00;;
16579;SDS011;8402;51.466;6.806;2023-02-15T07:09:08;29.17;;;12.10;;
16579;SDS011;8402;51.466;6.806;2023-02-15T07:11:39;38.93;;;14.80;;
16579;SDS011;8402;51.466;6.806;2023-02-15T07:14:21;35.57;;;13.00;;
16579;SDS011;8402;51.466;6.806;2023-02-15T07:16:54;38.67;;;13.43;;
16579;SDS011;8402;51.466;6.806;2023-02-15T07:19:24;32.13;;;13.27;;
16579;SDS011;8402;51.466;6.806;2023-02-15T07:21:54;38.07;;;14.27;;
16579;SDS011;8402;51.466;6.806;2023-02-15T07:24:26;36.27;;;13.70;;
16579;SDS011;8402;51.466;6.806;2023-02-15T07:26:56;38.47;;;15.07;;
16579;SDS011;8402;51.466;6.806;2023-02-15T07:29:26;36.97;;;14.13;;
16579;SDS011;8402;51.466;6.806;2023-02-15T07:31:56;35.17;;;13.40;;
16579;SDS011;8402;51.466;6.806;2023-02-15T07:34:26;35.47;;;14.27;;
16579;SDS011;8402;51.466;6.806;2023-02-15T07:36:56;37.53;;;13.87;;
16579;SDS011;8402;51.466;6.806;2023-02-15T07:39:29;31.23;;;13.40;;
16579;SDS011;8402;51.466;6.806;2023-02-15T07:41:59;34.70;;;14.17;;
16579;SDS011;8402;51.466;6.806;2023-02-15T07:44:29;36.87;;;13.13;;
16579;SDS011;8402;51.466;6.806;2023-02-15T07:47:00;34.73;;;14.23;;
16579;SDS011;8402;51.466;6.806;2023-02-15T07:49:30;36.07;;;14.90;;
16579;SDS011;8402;51.466;6.806;2023-02-15T07:52:00;30.97;;;13.33;;
16579;SDS011;8402;51.466;6.806;2023-02-15T07:54:32;35.50;;;13.83;;
16579;SDS011;8402;51.466;6.806;2023-02-15T07:57:02;36.53;;;13.57;;
16579;SDS011;8402;51.466;6.806;2023-02-15T07:59:32;37.50;;;13.90;;
16579;SDS011;8402;51.466;6.806;2023-02-15T08:02:02;30.73;;;13.60;;
16579;SDS011;8402;51.466;6.806;2023-02-15T08:04:34;35.40;;;14.43;;
16579;SDS011;8402;51.466;6.806;2023-02-15T08:07:05;40.23;;;15.67;;
16579;SDS011;8402;51.466;6.806;2023-02-15T08:09:38;32.63;;;14.53;;
16579;SDS011;8402;51.466;6.806;2023-02-15T08:12:08;29.07;;;13.07;;
16579;SDS011;8402;51.466;6.806;2023-02-15T08:14:38;33.77;;;14.43;;
16579;SDS011;8402;51.466;6.806;2023-02-15T08:17:07;32.67;;;13.87;;
16579;SDS011;8402;51.466;6.806;2023-02-15T08:19:37;29.47;;;13.23;;
16579;SDS011;8402;51.466;6.806;2023-02-15T08:22:10;34.33;;;14.33;;
16579;SDS011;8402;51.466;6.806;2023-02-15T08:24:44;32.40;;;14.53;;
16579;SDS011;8402;51.466;6.806;2023-02-15T08:27:15;31.30;;;12.50;;
16579;SDS011;8402;51.466;6.806;2023-02-15T08:29:53;28.93;;;12.60;;
16579;SDS011;8402;51.466;6.806;2023-02-15T08:32:22;33.00;;;13.20;;
16579;SDS011;8402;51.466;6.806;2023-02-15T08:34:52;33.43;;;12.97;;
16579;SDS011;8402;51.466;6.806;2023-02-15T08:37:22;29.70;;;13.57;;
16579;SDS011;8402;51.466;6.806;2023-02-15T08:39:55;28.10;;;12.57;;
16579;SDS011;8402;51.466;6.806;2023-02-15T08:42:25;31.80;;;13.40;;
16579;SDS011;8402;51.466;6.806;2023-02-15T08:44:54;32.93;;;11.97;;
16579;SDS011;8402;51.466;6.806;2023-02-15T08:47:24;28.77;;;12.73;;
16579;SDS011;8402;51.466;6.806;2023-02-15T08:49:54;25.97;;;11.77;;
16579;SDS011;8402;51.466;6.806;2023-02-15T08:52:24;28.23;;;13.23;;
16579;SDS011;8402;51.466;6.806;2023-02-15T08:54:57;34.63;;;12.43;;
16579;SDS011;8402;51.466;6.806;2023-02-15T08:57:27;27.83;;;12.13;;
16579;SDS011;8402;51.466;6.806;2023-02-15T08:59:57;33.17;;;12.00;;
16579;SDS011;8402;51.466;6.806;2023-02-15T09:02:27;34.73;;;12.50;;
16579;SDS011;8402;51.466;6.806;2023-02-15T09:04:57;25.23;;;11.07;;
16579;SDS011;8402;51.466;6.806;2023-02-15T09:07:27;28.53;;;12.50;;
16579;SDS011;8402;51.466;6.806;2023-02-15T09:10:00;30.50;;;12.57;;
16579;SDS011;8402;51.466;6.806;2023-02-15T09:12:30;27.17;;;12.43;;
16579;SDS011;8402;51.466;6.806;2023-02-15T09:15:00;28.27;;;11.40;;
16579;SDS011;8402;51.466;6.806;2023-02-15T09:17:30;30.23;;;12.60;;
16579;SDS011;8402;51.466;6.806;2023-02-15T09:19:59;27.50;;;11.87;;
16579;SDS011;8402;51.466;6.806;2023-02-15T09:22:29;30.43;;;11.87;;
16579;SDS011;8402;51.466;6.806;2023-02-15T09:25:02;31.73;;;12.20;;
16579;SDS011;8402;51.466;6.806;2023-02-15T09:27:32;26.90;;;10.37;;
16579;SDS011;8402;51.466;6.806;2023-02-15T09:30:03;28.93;;;11.90;;
16579;SDS011;8402;51.466;6.806;2023-02-15T09:32:33;27.37;;;12.13;;
16579;SDS011;8402;51.466;6.806;2023-02-15T09:35:04;31.33;;;11.40;;
16579;SDS011;8402;51.466;6.806;2023-02-15T09:37:37;28.03;;;11.33;;
16579;SDS011;8402;51.466;6.806;2023-02-15T09:40:10;26.07;;;11.53;;
16579;SDS011;8402;51.466;6.806;2023-02-15T09:42:48;24.47;;;10.90;;
16579;SDS011;8402;51.466;6.806;2023-02-15T09:45:54;26.33;;;11.57;;
16579;SDS011;8402;51.466;6.806;2023-02-15T09:48:39;26.30;;;11.60;;
16579;SDS011;8402;51.466;6.806;2023-02-15T09:51:15;26.50;;;11.27;;
16579;SDS011;8402;51.466;6.806;2023-02-15T09:54:03;24.73;;;10.80;;
16579;SDS011;8402;51.466;6.806;2023-02-15T09:56:45;22.87;;;9.70;;
16579;SDS011;8402;51.466;6.806;2023-02-15T09:59:21;26.23;;;11.60;;
16579;SDS011;8402;51.466;6.806;2023-02-15T10:02:09;27.10;;;11.67;;
16579;SDS011;8402;51.466;6.806;2023-02-15T10:04:59;23.17;;;10.23;;
16579;SDS011;8402;51.466;6.806;2023-02-15T10:07:49;27.73;;;12.00;;
16579;SDS011;8402;51.466;6.806;2023-02-15T10:10:34;28.93;;;12.17;;
16579;SDS011;8402;51.466;6.806;2023-02-15T10:13:18;26.93;;;11.10;;
16579;SDS011;8402;51.466;6.806;2023-02-15T10:16:10;21.70;;;10.07;;
16579;SDS011;8402;51.466;6.806;2023-02-15T10:18:55;22.60;;;11.10;;
16579;SDS011;8402;51.466;6.806;2023-02-15T10:21:39;28.23;;;11.10;;
16579;SDS011;8402;51.466;6.806;2023-02-15T10:24:24;26.07;;;11.60;;
16579;SDS011;8402;51.466;6.806;2023-02-15T10:27:20;24.53;;;11.60;;
16579;SDS011;8402;51.466;6.806;2023-02-15T10:29:57;27.17;;;10.07;;
16579;SDS011;8402;51.466;6.806;2023-02-15T10:32:36;23.63;;;10.50;;
16579;SDS011;8402;51.466;6.806;2023-02-15T10:35:19;25.37;;;11.53;;
16579;SDS011;8402;51.466;6.806;2023-02-15T10:37:55;23.83;;;11.37;;
16579;SDS011;8402;51.466;6.806;2023-02-15T10:40:41;26.97;;;10.73;;
16579;SDS011;8402;51.466;6.806;2023-02-15T10:43:30;23.27;;;11.60;;
16579;SDS011;8402;51.466;6.806;2023-02-15T10:46:19;21.63;;;10.70;;
16579;SDS011;8402;51.466;6.806;2023-02-15T10:49:15;25.23;;;11.60;;
16579;SDS011;8402;51.466;6.806;2023-02-15T10:52:18;24.53;;;11.27;;
16579;SDS011;8402;51.466;6.806;2023-02-15T10:55:02;25.57;;;11.20;;
16579;SDS011;8402;51.466;6.806;2023-02-15T10:57:46;22.50;;;10.77;;
16579;SDS011;8402;51.466;6.806;2023-02-15T11:00:21;22.33;;;11.17;;
16579;SDS011;8402;51.466;6.806;2023-02-15T11:03:05;23.43;;;11.37;;
16579;SDS011;8402;51.466;6.806;2023-02-15T11:05:48;27.67;;;11.40;;
16579;SDS011;8402;51.466;6.806;2023-02-15T11:08:29;23.93;;;11.70;;
16579;SDS011;8402;51.466;6.806;2023-02-15T11:11:05;25.53;;;11.10;;
16579;SDS011;8402;51.466;6.806;2023-02-15T11:13:39;22.60;;;10.30;;
16579;SDS011;8402;51.466;6.806;2023-02-15T11:16:13;27.20;;;10.90;;
16579;SDS011;8402;51.466;6.806;2023-02-15T11:18:53;23.70;;;11.17;;
16579;SDS011;8402;51.466;6.806;2023-02-15T11:21:27;19.53;;;8.37;;
16579;SDS011;8402;51.466;6.806;2023-02-15T11:24:07;23.53;;;10.77;;
16579;SDS011;8402;51.466;6.806;2023-02-15T11:26:41;23.43;;;11.20;;
16579;SDS011;8402;51.466;6.806;2023-02-15T11:29:13;20.87;;;10.87;;
16579;SDS011;8402;51.466;6.806;2023-02-15T11:31:53;22.90;;;10.77;;
16579;SDS011;8402;51.466;6.806;2023-02-15T11:34:29;22.20;;;10.63;;
16579;SDS011;8402;51.466;6.806;2023-02-15T11:37:05;21.30;;;9.80;;
16579;SDS011;8402;51.466;6.806;2023-02-15T11:39:38;25.57;;;9.70;;
16579;SDS011;8402;51.466;6.806;2023-02-15T11:42:11;22.67;;;10.47;;
16579;SDS011;8402;51.466;6.806;2023-02-15T11:44:46;23.20;;;11.13;;
16579;SDS011;8402;51.466;6.806;2023-02-15T11:47:24;22.67;;;10.97;;
16579;SDS011;8402;51.466;6.806;2023-02-15T11:49:57;19.13;;;10.17;;
16579;SDS011;8402;51.466;6.806;2023-02-15T11:52:27;21.53;;;10.77;;
16579;SDS011;8402;51.466;6.806;2023-02-15T11:54:57;20.37;;;10.50;;
16579;SDS011;8402;51.466;6.806;2023-02-15T11:57:28;29.47;;;11.80;;
16579;SDS011;8402;51.466;6.806;2023-02-15T12:00:09;27.43;;;10.77;;
16579;SDS011;8402;51.466;6.806;2023-02-15T12:02:44;28.90;;;11.33;;
16579;SDS011;8402;51.466;6.806;2023-02-15T12:05:23;29.67;;;11.50;;
16579;SDS011;8402;51.466;6.806;2023-02-15T12:07:55;48.07;;;12.03;;
16579;SDS011;8402;51.466;6.806;2023-02-15T12:10:34;21.97;;;11.37;;
16579;SDS011;8402;51.466;6.806;2023-02-15T12:13:08;21.03;;;9.83;;
16579;SDS011;8402;51.466;6.806;2023-02-15T12:15:40;18.87;;;9.60;;
16579;SDS011;8402;51.466;6.806;2023-02-15T12:18:17;22.23;;;10.03;;
16579;SDS011;8402;51.466;6.806;2023-02-15T12:20:52;21.80;;;10.33;;
16579;SDS011;8402;51.466;6.806;2023-02-15T12:23:29;19.00;;;9.97;;
16579;SDS011;8402;51.466;6.806;2023-02-15T12:26:01;26.33;;;10.60;;
16579;SDS011;8402;51.466;6.806;2023-02-15T12:28:32;22.20;;;10.53;;
16579;SDS011;8402;51.466;6.806;2023-02-15T12:31:07;24.33;;;10.10;;
16579;SDS011;8402;51.466;6.806;2023-02-15T12:33:48;18.17;;;8.90;;
16579;SDS011;8402;51.466;6.806;2023-02-15T12:36:27;20.13;;;10.10;;
16579;SDS011;8402;51.466;6.806;2023-02-15T12:39:03;23.73;;;9.10;;
16579;SDS011;8402;51.466;6.806;2023-02-15T12:41:48;16.07;;;8.33;;
16579;SDS011;8402;51.466;6.806;2023-02-15T12:44:29;22.40;;;10.03;;
16579;SDS011;8402;51.466;6.806;2023-02-15T12:47:01;20.20;;;9.77;;
16579;SDS011;8402;51.466;6.806;2023-02-15T12:49:34;22.53;;;9.30;;
16579;SDS011;8402;51.466;6.806;2023-02-15T12:52:22;19.50;;;9.10;;
16579;SDS011;8402;51.466;6.806;2023-02-15T12:54:54;24.53;;;9.70;;
16579;SDS011;8402;51.466;6.806;2023-02-15T12:57:25;28.20;;;10.07;;
16579;SDS011;8402;51.466;6.806;2023-02-15T12:59:57;22.33;;;9.87;;
16579;SDS011;8402;51.466;6.806;2023-02-15T13:02:30;23.73;;;9.43;;
16579;SDS011;8402;51.466;6.806;2023-02-15T13:05:10;19.83;;;9.00;;
16579;SDS011;8402;51.466;6.806;2023-02-15T13:07:53;21.30;;;9.10;;
16579;SDS011;8402;51.466;6.806;2023-02-15T13:10:28;22.77;;;9.87;;
16579;SDS011;8402;51.466;6.806;2023-02-15T13:13:00;25.33;;;9.90;;
16579;SDS011;8402;51.466;6.806;2023-02-15T13:15:32;34.90;;;11.50;;
16579;SDS011;8402;51.466;6.806;2023-02-15T13:18:05;28.07;;;10.20;;
16579;SDS011;8402;51.466;6.806;2023-02-15T13:20:42;20.53;;;9.97;;
16579;SDS011;8402;51.466;6.806;2023-02-15T13:23:20;23.30;;;10.47;;
16579;SDS011;8402;51.466;6.806;2023-02-15T13:25:56;20.03;;;9.33;;
16579;SDS011;8402;51.466;6.806;2023-02-15T13:28:31;25.00;;;10.07;;
16579;SDS011;8402;51.466;6.806;2023-02-15T13:31:11;26.20;;;9.83;;
16579;SDS011;8402;51.466;6.806;2023-02-15T13:33:43;20.50;;;9.07;;
16579;SDS011;8402;51.466;6.806;2023-02-15T13:36:18;23.00;;;9.27;;
16579;SDS011;8402;51.466;6.806;2023-02-15T13:39:01;21.73;;;8.57;;
16579;SDS011;8402;51.466;6.806;2023-02-15T13:41:43;19.03;;;8.90;;
16579;SDS011;8402;51.466;6.806;2023-02-15T13:44:25;22.80;;;9.10;;
16579;SDS011;8402;51.466;6.806;2023-02-15T13:47:10;21.23;;;9.30;;
16579;SDS011;8402;51.466;6.806;2023-02-15T13:49:50;26.50;;;9.30;;
16579;SDS011;8402;51.466;6.806;2023-02-15T13:52:32;20.00;;;9.47;;
16579;SDS011;8402;51.466;6.806;2023-02-15T13:58:18;27.07;;;9.53;;
16579;SDS011;8402;51.466;6.806;2023-02-15T14:01:05;24.57;;;9.93;;
16579;SDS011;8402;51.466;6.806;2023-02-15T14:03:43;26.80;;;11.30;;
16579;SDS011;8402;51.466;6.806;2023-02-15T14:09:20;27.17;;;11.30;;
16579;SDS011;8402;51.466;6.806;2023-02-15T14:12:12;27.00;;;9.73;;
16579;SDS011;8402;51.466;6.806;2023-02-15T14:17:54;32.00;;;10.10;;
16579;SDS011;8402;51.466;6.806;2023-02-15T14:20:39;22.70;;;9.00;;
16579;SDS011;8402;51.466;6.806;2023-02-15T14:23:19;24.87;;;10.00;;
16579;SDS011;8402;51.466;6.806;2023-02-15T14:26:01;26.90;;;9.90;;
16579;SDS011;8402;51.466;6.806;2023-02-15T14:28:40;28.27;;;10.63;;
16579;SDS011;8402;51.466;6.806;2023-02-15T14:31:16;25.17;;;10.07;;
16579;SDS011;8402;51.466;6.806;2023-02-15T14:33:55;25.17;;;10.53;;
16579;SDS011;8402;51.466;6.806;2023-02-15T14:36:26;25.90;;;10.93;;
16579;SDS011;8402;51.466;6.806;2023-02-15T14:39:05;31.50;;;10.70;;
16579;SDS011;8402;51.466;6.806;2023-02-15T14:41:58;26.10;;;9.97;;
16579;SDS011;8402;51.466;6.806;2023-02-15T14:44:38;25.10;;;9.20;;
16579;SDS011;8402;51.466;6.806;2023-02-15T14:47:14;50.67;;;10.97;;
16579;SDS011;8402;51.466;6.806;2023-02-15T14:49:48;29.77;;;10.37;;
16579;SDS011;8402;51.466;6.806;2023-02-15T14:52:18;24.77;;;10.40;;
16579;SDS011;8402;51.466;6.806;2023-02-15T14:54:58;25.33;;;10.70;;
16579;SDS011;8402;51.466;6.806;2023-02-15T14:57:32;21.63;;;9.93;;
16579;SDS011;8402;51.466;6.806;2023-02-15T15:03:16;24.27;;;9.40;;
16579;SDS011;8402;51.466;6.806;2023-02-15T15:05:52;42.33;;;9.30;;
16579;SDS011;8402;51.466;6.806;2023-02-15T15:08:28;22.77;;;9.27;;
16579;SDS011;8402;51.466;6.806;2023-02-15T15:14:09;21.57;;;8.90;;
16579;SDS011;8402;51.466;6.806;2023-02-15T15:17:00;20.90;;;9.00;;
16579;SDS011;8402;51.466;6.806;2023-02-15T15:22:42;19.87;;;8.47;;
16579;SDS011;8402;51.466;6.806;2023-02-15T15:31:14;24.03;;;9.10;;
16579;SDS011;8402;51.466;6.806;2023-02-15T15:34:03;22.63;;;9.57;;
16579;SDS011;8402;51.466;6.806;2023-02-15T15:40:16;21.10;;;9.70;;
16579;SDS011;8402;51.466;6.806;2023-02-15T15:49:00;22.30;;;10.30;;
16579;SDS011;8402;51.466;6.806;2023-02-15T15:51:31;20.03;;;9.60;;
16579;SDS011;8402;51.466;6.806;2023-02-15T15:54:03;22.63;;;10.13;;
16579;SDS011;8402;51.466;6.806;2023-02-15T15:56:35;19.47;;;9.20;;
16579;SDS011;8402;51.466;6.806;2023-02-15T15:59:12;22.17;;;9.60;;
16579;SDS011;8402;51.466;6.806;2023-02-15T16:01:46;25.80;;;9.67;;
16579;SDS011;8402;51.466;6.806;2023-02-15T16:04:26;24.10;;;10.53;;
16579;SDS011;8402;51.466;6.806;2023-02-15T16:06:58;25.80;;;11.70;;
16579;SDS011;8402;51.466;6.806;2023-02-15T16:09:53;25.23;;;10.20;;